Melrose, Minnesota
Current Conditions -  °F | °C
As of 5:52 PM on Friday 28 Nov 2014 (Local Time) from KD39 Reporting Station
Overcast Overcast  
Wind Chill:   Ceiling: 11000
Heat Index: 17°   Visibility: 10mi
Dew Point: 13°   Wind: 9mph
Humidity: 86%   Direction: 100°E
Pressure: 29.78"   Gusts: NA
Location:  45.67°N, 94.81°W
Report Text: KD39 282352Z AUTO 10008KT 10SM SCT015 OVC110 M08/M10 A2978 RMK AO2 T10851105 11080 21103
Loading
Personal Weather Stations






























Interactive Weather Map New forecast layout! Learn more

10-Day Weather Forecast

Advertisements
Track Severe Weather on mobile